METAR Data
IDs: Format: Raw Decoded Include TAF

Data at: 1318 UTC 26 Feb 2021

EGNS 261250Z 21007KT 9999 FEW020 10/07 Q1036 NOSIG